createdAt,value
2022-12-15T00:00:21.121Z,22.75
2022-12-15T00:03:06.713Z,22.60
2022-12-15T00:08:38.075Z,22.55
2022-12-15T00:11:24.053Z,22.20
2022-12-15T00:14:09.475Z,24.13
2022-12-15T00:16:54.955Z,23.27
2022-12-15T00:19:40.344Z,24.48
2022-12-15T00:22:25.819Z,22.02
2022-12-15T00:25:11.070Z,22.92
2022-12-15T00:27:56.420Z,21.08
2022-12-15T00:30:41.941Z,23.35
2022-12-15T00:33:30.380Z,22.40
2022-12-15T00:36:18.122Z,23.58
2022-12-15T00:38:46.222Z,23.38
2022-12-15T00:41:18.581Z,23.20
2022-12-15T00:43:46.441Z,23.58
2022-12-15T00:46:33.013Z,22.88
2022-12-15T00:49:00.438Z,23.15
2022-12-15T00:51:46.311Z,25.58
2022-12-15T00:54:32.151Z,23.98
2022-12-15T00:57:17.544Z,21.65
2022-12-15T01:00:02.863Z,21.58
2022-12-15T01:02:48.528Z,22.48
2022-12-15T01:05:34.297Z,24.25
2022-12-15T01:08:20.041Z,24.33
2022-12-15T01:11:05.369Z,24.00
2022-12-15T01:13:50.866Z,22.85
2022-12-15T01:16:36.504Z,21.77
2022-12-15T01:21:49.711Z,21.98
2022-12-15T01:24:16.907Z,22.40
2022-12-15T01:26:43.805Z,23.02
2022-12-15T01:29:10.795Z,24.77
2022-12-15T01:31:37.748Z,22.60
2022-12-15T01:34:04.987Z,22.65
2022-12-15T01:36:31.923Z,22.42
2022-12-15T01:38:58.845Z,22.85
2022-12-15T01:41:25.785Z,22.27
2022-12-15T01:43:53.076Z,22.05
2022-12-15T01:46:23.208Z,23.10
2022-12-15T01:49:28.315Z,21.55
2022-12-15T01:52:06.066Z,22.58
2022-12-15T01:54:42.078Z,24.55
2022-12-15T01:57:18.872Z,21.52
2022-12-15T01:59:55.664Z,23.50
2022-12-15T02:02:28.127Z,23.60
2022-12-15T02:04:59.782Z,25.52
2022-12-15T02:07:27.646Z,24.25
2022-12-15T02:10:01.706Z,23.65
2022-12-15T02:12:52.772Z,22.75
2022-12-15T02:15:41.183Z,23.30
2022-12-15T02:18:43.622Z,23.17
2022-12-15T02:21:32.359Z,21.45
2022-12-15T02:24:28.810Z,21.73
2022-12-15T02:27:25.331Z,22.63
2022-12-15T02:30:30.502Z,23.45
2022-12-15T02:33:27.642Z,22.10
2022-12-15T02:36:28.533Z,21.67
2022-12-15T02:38:55.603Z,22.30
2022-12-15T02:41:40.641Z,21.38
2022-12-15T02:44:36.891Z,24.88
2022-12-15T02:47:23.319Z,23.15
2022-12-15T02:50:17.880Z,24.02
2022-12-15T02:53:00.524Z,25.08
2022-12-15T02:55:50.362Z,21.15
2022-12-15T02:58:44.602Z,21.60
2022-12-15T03:01:40.681Z,20.35
2022-12-15T03:06:38.313Z,20.38
2022-12-15T03:09:05.598Z,23.00
2022-12-15T03:11:33.228Z,21.17
2022-12-15T03:14:00.136Z,22.63
2022-12-15T03:16:27.285Z,23.65
2022-12-15T03:18:54.249Z,22.92
2022-12-15T03:21:21.242Z,23.13
2022-12-15T03:23:48.123Z,24.25
2022-12-15T03:26:16.402Z,25.75
2022-12-15T03:28:43.599Z,25.40
2022-12-15T03:31:10.497Z,24.35
2022-12-15T03:33:37.507Z,24.35
2022-12-15T03:36:05.160Z,22.67
2022-12-15T03:38:32.034Z,23.63
2022-12-15T03:40:59.003Z,24.90
2022-12-15T03:43:25.900Z,23.08
2022-12-15T03:45:53.092Z,24.65
2022-12-15T03:48:20.033Z,25.13
2022-12-15T03:50:48.375Z,23.23
2022-12-15T03:53:15.315Z,24.98
2022-12-15T03:55:42.220Z,24.00
2022-12-15T03:58:09.135Z,22.95
2022-12-15T04:00:36.170Z,23.67
2022-12-15T04:03:03.250Z,25.63
2022-12-15T04:05:33.921Z,22.70
2022-12-15T04:08:02.160Z,25.20
2022-12-15T04:10:35.120Z,23.67
2022-12-15T04:13:09.460Z,24.95
2022-12-15T04:15:39.059Z,23.25
2022-12-15T04:18:10.051Z,24.75
2022-12-15T04:20:39.302Z,24.17
2022-12-15T04:23:09.350Z,24.08
2022-12-15T04:25:55.693Z,23.42
2022-12-15T04:28:41.660Z,22.75
2022-12-15T04:31:31.862Z,23.98
2022-12-15T04:34:21.924Z,23.40
2022-12-15T04:37:11.221Z,25.40
2022-12-15T04:40:00.727Z,25.60
2022-12-15T04:42:49.644Z,22.00
2022-12-15T04:45:40.099Z,23.98
2022-12-15T04:48:26.110Z,23.73
2022-12-15T04:51:11.811Z,23.55
2022-12-15T04:56:43.138Z,22.40
2022-12-15T04:59:28.363Z,24.60
2022-12-15T05:02:13.837Z,22.48
2022-12-15T05:04:59.458Z,23.52
2022-12-15T05:07:45.908Z,22.00
2022-12-15T05:10:32.100Z,22.60
2022-12-15T05:13:26.312Z,21.75
2022-12-15T05:16:12.183Z,23.63
2022-12-15T05:18:58.373Z,21.92
2022-12-15T05:21:44.114Z,21.40
2022-12-15T05:27:14.882Z,19.67
2022-12-15T05:30:00.194Z,23.63
2022-12-15T05:32:27.215Z,22.80
2022-12-15T05:34:54.215Z,21.27
2022-12-15T05:37:21.146Z,22.50
2022-12-15T05:39:48.281Z,22.60
2022-12-15T05:42:15.462Z,22.45
2022-12-15T05:44:43.251Z,20.58
2022-12-15T05:47:11.755Z,22.67
2022-12-15T05:49:38.681Z,22.42
2022-12-15T05:52:07.078Z,21.73
2022-12-15T05:54:34.046Z,22.42
2022-12-15T05:57:00.893Z,21.27
2022-12-15T05:59:27.911Z,20.67
2022-12-15T06:01:54.896Z,21.55
2022-12-15T06:04:22.001Z,20.60
2022-12-15T06:06:49.043Z,22.65
2022-12-15T06:09:15.979Z,22.30
2022-12-15T06:11:43.965Z,20.98
2022-12-15T06:14:10.881Z,20.60
2022-12-15T06:16:44.183Z,19.95
2022-12-15T06:19:17.849Z,20.45
2022-12-15T06:21:44.785Z,18.63
2022-12-15T06:24:11.768Z,20.17
2022-12-15T06:26:40.365Z,21.13
2022-12-15T06:29:11.291Z,21.25
2022-12-15T06:31:39.380Z,19.05
2022-12-15T06:34:12.771Z,20.13
2022-12-15T06:36:39.994Z,20.25
2022-12-15T06:39:12.962Z,18.98
2022-12-15T06:41:41.329Z,19.88
2022-12-15T06:44:12.937Z,19.80
2022-12-15T06:46:40.239Z,19.60
2022-12-15T06:49:09.191Z,20.60
2022-12-15T06:52:09.407Z,19.17
2022-12-15T06:54:36.387Z,20.80
2022-12-15T06:57:04.763Z,20.50
2022-12-15T06:59:34.611Z,19.08
2022-12-15T07:02:02.264Z,20.80
2022-12-15T07:04:32.464Z,21.80
2022-12-15T07:06:59.414Z,21.17
2022-12-15T07:09:27.844Z,19.92
2022-12-15T07:11:54.860Z,19.48
2022-12-15T07:14:23.072Z,18.88
2022-12-15T07:16:49.990Z,22.63
2022-12-15T07:19:16.872Z,22.83
2022-12-15T07:21:43.911Z,21.33
2022-12-15T07:24:14.204Z,21.42
2022-12-15T07:26:41.967Z,20.52
2022-12-15T07:29:10.251Z,20.50
2022-12-15T07:31:37.278Z,33.30
2022-12-15T07:34:04.209Z,22.50
2022-12-15T07:36:32.786Z,20.98
2022-12-15T07:39:02.609Z,18.52
2022-12-15T07:41:30.111Z,18.75
2022-12-15T07:43:58.454Z,19.58
2022-12-15T07:46:26.319Z,18.80
2022-12-15T07:48:53.491Z,17.30
2022-12-15T07:51:21.769Z,18.83
2022-12-15T07:53:51.775Z,19.23
2022-12-15T07:56:23.127Z,18.52
2022-12-15T07:58:51.687Z,19.35
2022-12-15T08:01:19.011Z,18.10
2022-12-15T08:03:46.569Z,19.42
2022-12-15T08:06:15.316Z,17.98
2022-12-15T08:08:50.407Z,20.67
2022-12-15T08:11:37.182Z,21.17
2022-12-15T08:14:11.961Z,21.25
2022-12-15T08:16:41.024Z,22.55
2022-12-15T08:19:20.965Z,22.55
2022-12-15T08:24:35.616Z,22.17
2022-12-15T08:27:02.602Z,23.88
2022-12-15T08:29:50.657Z,23.48
2022-12-15T08:32:24.587Z,23.98
2022-12-15T08:34:51.569Z,23.63
2022-12-15T08:37:18.517Z,22.13
2022-12-15T08:39:45.418Z,22.52
2022-12-15T08:42:12.334Z,21.40
2022-12-15T08:44:39.213Z,22.27
2022-12-15T08:47:07.649Z,22.98
2022-12-15T08:49:34.641Z,22.55
2022-12-15T08:52:01.532Z,23.58
2022-12-15T08:54:28.539Z,24.52
2022-12-15T08:56:55.434Z,24.02
2022-12-15T08:59:43.636Z,23.02
2022-12-15T09:02:18.333Z,23.65
2022-12-15T09:04:45.861Z,22.63
2022-12-15T09:07:13.573Z,23.15
2022-12-15T09:09:40.843Z,21.63
2022-12-15T09:12:11.837Z,23.40
2022-12-15T09:14:38.875Z,23.02
2022-12-15T09:17:05.889Z,24.05
2022-12-15T09:19:32.971Z,24.58
2022-12-15T09:22:01.502Z,23.50
2022-12-15T09:24:34.706Z,23.55
2022-12-15T09:27:03.352Z,23.10
2022-12-15T09:29:30.682Z,23.00
2022-12-15T09:31:57.601Z,24.23
2022-12-15T09:34:24.631Z,22.77
2022-12-15T09:36:51.708Z,22.23
2022-12-15T09:39:18.679Z,23.58
2022-12-15T09:42:00.167Z,20.75
2022-12-15T09:44:31.390Z,22.15
2022-12-15T09:47:31.522Z,22.85
2022-12-15T09:50:04.727Z,21.92
2022-12-15T09:52:46.401Z,21.90
2022-12-15T09:55:24.684Z,21.80
2022-12-15T09:58:09.107Z,22.60
2022-12-15T10:01:10.955Z,21.02
2022-12-15T10:04:41.323Z,22.40
2022-12-15T10:07:39.882Z,23.30
2022-12-15T10:10:25.701Z,23.77
2022-12-15T10:13:02.237Z,21.13
2022-12-15T10:15:44.568Z,21.67
2022-12-15T10:18:23.642Z,19.20
2022-12-15T10:20:55.051Z,21.17
2022-12-15T10:23:22.107Z,21.30
2022-12-15T10:25:59.279Z,22.38
2022-12-15T10:32:29.005Z,19.20
2022-12-15T10:35:21.136Z,20.27
2022-12-15T10:38:17.514Z,19.98
2022-12-15T10:40:55.548Z,18.45
2022-12-15T10:43:38.185Z,21.42
2022-12-15T10:46:15.888Z,20.00
2022-12-15T10:48:59.507Z,18.83
2022-12-15T10:51:39.496Z,18.52
2022-12-15T10:54:29.689Z,20.73
2022-12-15T10:57:30.254Z,20.58
2022-12-15T11:00:22.768Z,20.73
2022-12-15T11:02:50.726Z,20.40
2022-12-15T11:05:18.800Z,20.67
2022-12-15T11:07:59.277Z,20.23
2022-12-15T11:10:58.748Z,20.27
2022-12-15T11:13:34.815Z,20.40
2022-12-15T11:16:17.486Z,19.27
2022-12-15T11:18:50.523Z,20.55
2022-12-15T11:21:21.599Z,20.50
2022-12-15T11:24:25.932Z,21.27
2022-12-15T11:27:06.262Z,20.27
2022-12-15T11:29:57.402Z,18.70
2022-12-15T11:32:33.792Z,18.67
2022-12-15T11:35:01.240Z,19.25
2022-12-15T11:38:01.566Z,16.83
2022-12-15T11:40:34.505Z,18.02
2022-12-15T11:43:27.222Z,19.40
2022-12-15T11:46:30.039Z,19.02
2022-12-15T11:49:42.832Z,18.52
2022-12-15T11:52:50.426Z,21.15
2022-12-15T11:55:33.215Z,21.30
2022-12-15T11:58:48.855Z,21.60
2022-12-15T12:01:25.860Z,17.92
2022-12-15T12:04:18.214Z,21.20
2022-12-15T12:07:19.031Z,19.83
2022-12-15T12:10:36.973Z,20.05
2022-12-15T12:13:34.084Z,17.70
2022-12-15T12:16:45.731Z,19.48
2022-12-15T12:19:32.383Z,19.73
2022-12-15T12:22:11.856Z,19.00
2022-12-15T12:25:12.156Z,17.80
2022-12-15T12:28:26.987Z,16.80
2022-12-15T12:30:59.696Z,17.67
2022-12-15T12:33:55.606Z,17.55
2022-12-15T12:36:22.667Z,16.35
2022-12-15T12:38:59.608Z,15.77
2022-12-15T12:42:04.709Z,16.58
2022-12-15T12:44:38.397Z,16.73
2022-12-15T12:47:25.736Z,15.77
2022-12-15T12:50:03.856Z,13.60
2022-12-15T12:52:36.294Z,13.57
2022-12-15T12:55:43.330Z,14.35
2022-12-15T12:58:39.240Z,14.45
2022-12-15T13:04:47.220Z,17.50
2022-12-15T13:07:36.596Z,16.05
2022-12-15T13:10:09.371Z,16.70
2022-12-15T13:12:58.705Z,17.80
2022-12-15T13:16:16.947Z,17.25
2022-12-15T13:19:14.162Z,16.75
2022-12-15T13:21:44.449Z,15.68
2022-12-15T13:24:46.164Z,18.48
2022-12-15T13:27:18.510Z,17.05
2022-12-15T13:30:21.060Z,17.45
2022-12-15T13:32:54.897Z,17.65
2022-12-15T13:35:31.260Z,16.48
2022-12-15T13:38:07.393Z,20.13
2022-12-15T13:40:37.933Z,20.08
2022-12-15T13:43:04.788Z,18.90
2022-12-15T13:45:39.374Z,20.48
2022-12-15T13:48:33.929Z,19.10
2022-12-15T13:51:33.627Z,16.58
2022-12-15T13:54:21.659Z,19.55
2022-12-15T13:57:14.753Z,19.13
2022-12-15T13:59:52.707Z,20.48
2022-12-15T14:02:31.477Z,18.73
2022-12-15T14:05:26.066Z,19.40
2022-12-15T14:07:54.928Z,18.33
2022-12-15T14:10:27.100Z,18.25
2022-12-15T14:12:58.034Z,19.58
2022-12-15T14:15:33.196Z,21.45
2022-12-15T14:18:02.573Z,21.40
2022-12-15T14:20:39.826Z,22.17
2022-12-15T14:23:38.429Z,20.33
2022-12-15T14:26:41.986Z,20.85
2022-12-15T14:29:44.912Z,19.98
2022-12-15T14:32:12.113Z,19.30
2022-12-15T14:34:50.679Z,20.95
2022-12-15T14:37:29.351Z,21.13
2022-12-15T14:39:57.623Z,22.00
2022-12-15T14:42:28.996Z,22.50
2022-12-15T14:44:58.492Z,21.42
2022-12-15T14:47:35.127Z,22.13
2022-12-15T14:50:09.806Z,22.40
2022-12-15T14:52:44.926Z,25.10
2022-12-15T14:55:40.256Z,22.30
2022-12-15T14:58:40.725Z,21.30
2022-12-15T15:01:50.703Z,22.00
2022-12-15T15:03:11.154Z,21.40
2022-12-15T15:04:35.434Z,21.88
2022-12-15T15:07:15.734Z,20.10
2022-12-15T15:09:45.959Z,19.67
2022-12-15T15:12:20.784Z,19.92
2022-12-15T15:15:04.259Z,19.98
2022-12-15T15:17:48.666Z,19.38
2022-12-15T15:20:23.009Z,19.17
2022-12-15T15:23:18.110Z,22.13
2022-12-15T15:26:04.152Z,21.20
2022-12-15T15:28:46.461Z,18.75
2022-12-15T15:31:40.912Z,20.35
2022-12-15T15:34:09.289Z,19.02
2022-12-15T15:39:32.795Z,19.95
2022-12-15T15:42:10.560Z,19.75
2022-12-15T15:44:37.486Z,19.92
2022-12-15T15:47:14.758Z,21.05
2022-12-15T15:49:42.084Z,20.23
2022-12-15T15:52:13.309Z,20.80
2022-12-15T15:54:40.412Z,19.33
2022-12-15T15:57:16.878Z,22.02
2022-12-15T15:59:45.258Z,19.90
2022-12-15T16:02:14.821Z,20.40
2022-12-15T16:04:43.657Z,22.42
2022-12-15T16:07:29.022Z,20.20
2022-12-15T16:09:57.106Z,19.67
2022-12-15T16:12:40.640Z,20.17
2022-12-15T16:15:26.135Z,21.65
2022-12-15T16:17:54.579Z,21.25
2022-12-15T16:20:26.008Z,19.55
2022-12-15T16:23:11.890Z,21.35
2022-12-15T16:25:50.328Z,22.30
2022-12-15T16:28:22.210Z,22.38
2022-12-15T16:30:50.596Z,21.55
2022-12-15T16:33:18.261Z,22.00
2022-12-15T16:35:48.754Z,21.50
2022-12-15T16:38:28.971Z,22.20
2022-12-15T16:40:58.666Z,21.85
2022-12-15T16:43:32.922Z,20.00
2022-12-15T16:46:03.794Z,22.13
2022-12-15T16:48:31.246Z,22.05
2022-12-15T16:50:59.157Z,19.90
2022-12-15T16:53:33.278Z,20.08
2022-12-15T16:56:05.104Z,20.27
2022-12-15T16:58:35.197Z,20.17
2022-12-15T17:01:03.880Z,20.20
2022-12-15T17:03:31.095Z,18.38
2022-12-15T17:06:03.962Z,18.48
2022-12-15T17:08:42.662Z,19.08
2022-12-15T17:11:18.425Z,20.70
2022-12-15T17:13:51.108Z,18.90
2022-12-15T17:16:20.555Z,18.52
2022-12-15T17:18:48.168Z,18.70
2022-12-15T17:21:47.881Z,21.58
2022-12-15T17:24:20.028Z,19.65
2022-12-15T17:26:47.698Z,19.73
2022-12-15T17:29:21.437Z,19.98
2022-12-15T17:31:49.012Z,22.40
2022-12-15T17:34:30.078Z,21.42
2022-12-15T17:37:03.330Z,21.77
2022-12-15T17:39:31.085Z,22.80
2022-12-15T17:42:00.425Z,24.50
2022-12-15T17:45:34.173Z,24.55
2022-12-15T17:48:04.261Z,23.10
2022-12-15T17:50:34.849Z,24.83
2022-12-15T17:53:05.370Z,29.05
2022-12-15T17:55:35.633Z,26.08
2022-12-15T17:58:15.321Z,25.23
2022-12-15T18:00:48.929Z,25.77
2022-12-15T18:03:16.723Z,23.88
2022-12-15T18:05:47.212Z,25.27
2022-12-15T18:08:25.677Z,26.20
2022-12-15T18:10:56.557Z,24.55
2022-12-15T18:13:35.601Z,23.35
2022-12-15T18:16:02.909Z,24.15
2022-12-15T18:18:30.230Z,24.83
2022-12-15T18:21:12.564Z,25.73
2022-12-15T18:23:40.208Z,25.77
2022-12-15T18:26:12.143Z,24.55
2022-12-15T18:28:39.106Z,24.38
2022-12-15T18:31:33.703Z,23.45
2022-12-15T18:34:04.813Z,25.88
2022-12-15T18:36:32.212Z,26.67
2022-12-15T18:38:59.140Z,25.73
2022-12-15T18:41:26.135Z,24.48
2022-12-15T18:43:56.259Z,22.08
2022-12-15T18:46:23.235Z,24.02
2022-12-15T18:48:50.435Z,24.10
2022-12-15T18:51:21.747Z,24.42
2022-12-15T18:53:49.316Z,24.35
2022-12-15T18:56:21.441Z,22.52
2022-12-15T18:58:48.427Z,25.17
2022-12-15T19:01:16.210Z,25.75
2022-12-15T19:03:43.367Z,26.58
2022-12-15T19:06:34.771Z,23.80
2022-12-15T19:09:33.715Z,26.48
2022-12-15T19:12:30.112Z,26.67
2022-12-15T19:14:57.304Z,26.23
2022-12-15T19:17:43.335Z,27.85
2022-12-15T19:20:38.618Z,27.10
2022-12-15T19:23:07.206Z,26.55
2022-12-15T19:25:35.556Z,25.90
2022-12-15T19:28:02.639Z,27.88
2022-12-15T19:30:38.535Z,26.13
2022-12-15T19:33:10.524Z,27.35
2022-12-15T19:35:40.629Z,27.73
2022-12-15T19:38:12.751Z,27.08
2022-12-15T19:40:41.150Z,24.50
2022-12-15T19:43:15.630Z,28.60
2022-12-15T19:45:43.206Z,26.27
2022-12-15T19:48:12.601Z,24.50
2022-12-15T19:50:42.174Z,24.63
2022-12-15T19:53:24.015Z,25.83
2022-12-15T19:55:55.230Z,26.48
2022-12-15T19:58:31.691Z,27.23
2022-12-15T20:01:06.734Z,29.67
2022-12-15T20:03:35.208Z,25.05
2022-12-15T20:06:06.726Z,26.63
2022-12-15T20:08:38.235Z,25.65
2022-12-15T20:11:09.375Z,26.17
2022-12-15T20:13:36.751Z,24.77
2022-12-15T20:16:07.159Z,23.67
2022-12-15T20:18:34.858Z,25.73
2022-12-15T20:21:02.719Z,24.75
2022-12-15T20:23:31.820Z,26.20
2022-12-15T20:25:59.341Z,27.17
2022-12-15T20:28:29.888Z,23.98
2022-12-15T20:31:01.202Z,26.15
2022-12-15T20:33:28.755Z,23.95
2022-12-15T20:35:56.268Z,27.38
2022-12-15T20:38:34.422Z,31.35
2022-12-15T20:41:03.859Z,27.50
2022-12-15T20:43:33.868Z,26.95
2022-12-15T20:46:12.631Z,29.17
2022-12-15T20:48:40.391Z,27.98
2022-12-15T20:51:11.471Z,27.70
2022-12-15T20:53:40.484Z,29.10
2022-12-15T20:56:08.182Z,28.77
2022-12-15T20:58:40.841Z,28.42
2022-12-15T21:01:23.440Z,30.88
2022-12-15T21:03:54.748Z,30.40
2022-12-15T21:06:23.263Z,27.85
2022-12-15T21:09:22.762Z,28.00
2022-12-15T21:11:51.877Z,27.58
2022-12-15T21:14:22.770Z,27.63
2022-12-15T21:16:52.392Z,28.02
2022-12-15T21:19:22.410Z,25.75
2022-12-15T21:21:55.275Z,26.05
2022-12-15T21:24:28.956Z,24.30
2022-12-15T21:26:56.374Z,26.10
2022-12-15T21:29:27.614Z,27.33
2022-12-15T21:31:54.728Z,24.42
2022-12-15T21:34:22.638Z,25.55
2022-12-15T21:36:55.110Z,25.17
2022-12-15T21:39:36.337Z,27.58
2022-12-15T21:42:12.618Z,27.00
2022-12-15T21:44:43.069Z,26.08
2022-12-15T21:47:51.974Z,25.55
2022-12-15T21:50:23.181Z,25.88
2022-12-15T21:52:50.666Z,25.67
2022-12-15T21:55:25.781Z,28.20
2022-12-15T21:57:54.567Z,25.45
2022-12-15T22:00:25.029Z,28.70
2022-12-15T22:02:53.631Z,31.27
2022-12-15T22:05:30.476Z,30.75
2022-12-15T22:08:17.933Z,30.55
2022-12-15T22:10:52.168Z,25.70
2022-12-15T22:13:25.190Z,25.35
2022-12-15T22:15:54.982Z,24.02
2022-12-15T22:18:24.997Z,22.95
2022-12-15T22:20:55.545Z,23.33
2022-12-15T22:23:25.004Z,22.85
2022-12-15T22:25:55.975Z,20.70
2022-12-15T22:28:28.558Z,24.55
2022-12-15T22:30:59.514Z,23.83
2022-12-15T22:33:28.548Z,27.92
2022-12-15T22:35:56.455Z,27.83
2022-12-15T22:38:24.731Z,26.92
2022-12-15T22:40:58.797Z,29.23
2022-12-15T22:43:43.471Z,28.92
2022-12-15T22:46:15.023Z,28.92
2022-12-15T22:48:45.565Z,29.73
2022-12-15T22:51:18.772Z,28.08
2022-12-15T22:53:48.176Z,27.55
2022-12-15T22:56:33.288Z,28.08
2022-12-15T22:59:10.283Z,27.40
2022-12-15T23:01:37.416Z,27.08
2022-12-15T23:04:05.739Z,24.33
2022-12-15T23:06:35.583Z,25.88
2022-12-15T23:09:02.578Z,23.73
2022-12-15T23:11:38.284Z,23.98
2022-12-15T23:14:19.186Z,27.42
2022-12-15T23:16:46.733Z,26.27
2022-12-15T23:19:23.686Z,28.98
2022-12-15T23:21:51.996Z,28.23
2022-12-15T23:24:20.950Z,28.98
2022-12-15T23:26:47.876Z,27.58
2022-12-15T23:29:14.972Z,28.00
2022-12-15T23:31:42.007Z,26.48
2022-12-15T23:34:10.941Z,31.23
2022-12-15T23:36:37.812Z,29.13
2022-12-15T23:39:04.702Z,29.38
2022-12-15T23:41:31.604Z,28.25
2022-12-15T23:43:58.537Z,28.67
2022-12-15T23:46:25.515Z,29.00
2022-12-15T23:48:52.647Z,26.50
2022-12-15T23:51:22.005Z,29.45
2022-12-15T23:53:48.999Z,28.15
2022-12-15T23:56:22.856Z,27.30
2022-12-15T23:58:58.108Z,26.98
